sensor_id;sensor_type;location;lat;lon;timestamp;temperature;humidity
4453;DHT22;2239;48.152;11.584;2023-05-31T00:01:16;14.90;92.20
4453;DHT22;2239;48.152;11.584;2023-05-31T00:03:41;14.90;92.20
4453;DHT22;2239;48.152;11.584;2023-05-31T00:06:12;14.90;92.00
4453;DHT22;2239;48.152;11.584;2023-05-31T00:08:38;14.90;92.00
4453;DHT22;2239;48.152;11.584;2023-05-31T00:11:05;14.80;91.70
4453;DHT22;2239;48.152;11.584;2023-05-31T00:13:31;14.80;91.70
4453;DHT22;2239;48.152;11.584;2023-05-31T00:15:57;14.70;91.50
4453;DHT22;2239;48.152;11.584;2023-05-31T00:18:22;14.70;91.50
4453;DHT22;2239;48.152;11.584;2023-05-31T00:20:48;14.60;91.30
4453;DHT22;2239;48.152;11.584;2023-05-31T00:23:13;14.60;91.10
4453;DHT22;2239;48.152;11.584;2023-05-31T00:25:39;14.60;91.10
4453;DHT22;2239;48.152;11.584;2023-05-31T00:28:05;14.60;91.10
4453;DHT22;2239;48.152;11.584;2023-05-31T00:30:30;14.50;90.90
4453;DHT22;2239;48.152;11.584;2023-05-31T00:32:56;14.50;90.70
4453;DHT22;2239;48.152;11.584;2023-05-31T00:35:21;14.40;90.50
4453;DHT22;2239;48.152;11.584;2023-05-31T00:37:47;14.30;90.70
4453;DHT22;2239;48.152;11.584;2023-05-31T00:40:21;14.30;90.60
4453;DHT22;2239;48.152;11.584;2023-05-31T00:42:47;14.30;90.60
4453;DHT22;2239;48.152;11.584;2023-05-31T00:45:13;14.20;90.70
4453;DHT22;2239;48.152;11.584;2023-05-31T00:47:38;14.20;90.60
4453;DHT22;2239;48.152;11.584;2023-05-31T00:50:05;14.20;90.60
4453;DHT22;2239;48.152;11.584;2023-05-31T00:52:30;14.10;90.60
4453;DHT22;2239;48.152;11.584;2023-05-31T00:54:59;14.10;90.60
4453;DHT22;2239;48.152;11.584;2023-05-31T00:57:25;14.00;90.60
4453;DHT22;2239;48.152;11.584;2023-05-31T00:59:51;14.00;90.60
4453;DHT22;2239;48.152;11.584;2023-05-31T01:02:17;13.90;90.60
4453;DHT22;2239;48.152;11.584;2023-05-31T01:04:44;13.90;90.60
4453;DHT22;2239;48.152;11.584;2023-05-31T01:07:09;13.80;90.50
4453;DHT22;2239;48.152;11.584;2023-05-31T01:09:36;13.80;90.60
4453;DHT22;2239;48.152;11.584;2023-05-31T01:12:29;13.70;90.60
4453;DHT22;2239;48.152;11.584;2023-05-31T01:15:24;13.70;90.60
4453;DHT22;2239;48.152;11.584;2023-05-31T01:18:20;13.60;90.50
4453;DHT22;2239;48.152;11.584;2023-05-31T01:20:51;13.60;90.60
4453;DHT22;2239;48.152;11.584;2023-05-31T01:24:07;13.70;90.60
4453;DHT22;2239;48.152;11.584;2023-05-31T01:26:47;13.70;90.60
4453;DHT22;2239;48.152;11.584;2023-05-31T01:29:17;13.70;90.70
4453;DHT22;2239;48.152;11.584;2023-05-31T01:31:45;13.70;90.60
4453;DHT22;2239;48.152;11.584;2023-05-31T01:34:11;13.60;90.50
4453;DHT22;2239;48.152;11.584;2023-05-31T01:36:37;13.60;90.90
4453;DHT22;2239;48.152;11.584;2023-05-31T01:39:03;13.60;90.50
4453;DHT22;2239;48.152;11.584;2023-05-31T01:41:31;13.60;90.60
4453;DHT22;2239;48.152;11.584;2023-05-31T01:43:59;13.60;90.70
4453;DHT22;2239;48.152;11.584;2023-05-31T01:46:26;13.60;90.70
4453;DHT22;2239;48.152;11.584;2023-05-31T01:48:52;13.60;90.60
4453;DHT22;2239;48.152;11.584;2023-05-31T01:51:19;13.60;90.80
4453;DHT22;2239;48.152;11.584;2023-05-31T01:53:45;13.50;90.80
4453;DHT22;2239;48.152;11.584;2023-05-31T01:56:12;13.50;90.70
4453;DHT22;2239;48.152;11.584;2023-05-31T01:58:40;13.50;90.90
4453;DHT22;2239;48.152;11.584;2023-05-31T02:01:11;13.50;90.80
4453;DHT22;2239;48.152;11.584;2023-05-31T02:03:38;13.40;90.80
4453;DHT22;2239;48.152;11.584;2023-05-31T02:06:05;13.40;90.80
4453;DHT22;2239;48.152;11.584;2023-05-31T02:08:30;13.30;90.80
4453;DHT22;2239;48.152;11.584;2023-05-31T02:10:56;13.20;90.90
4453;DHT22;2239;48.152;11.584;2023-05-31T02:13:26;13.20;90.90
4453;DHT22;2239;48.152;11.584;2023-05-31T02:15:53;13.30;90.80
4453;DHT22;2239;48.152;11.584;2023-05-31T02:18:19;13.30;90.70
4453;DHT22;2239;48.152;11.584;2023-05-31T02:20:45;13.30;90.70
4453;DHT22;2239;48.152;11.584;2023-05-31T02:23:11;13.20;90.90
4453;DHT22;2239;48.152;11.584;2023-05-31T02:25:36;13.20;91.00
4453;DHT22;2239;48.152;11.584;2023-05-31T02:28:02;13.10;90.90
4453;DHT22;2239;48.152;11.584;2023-05-31T02:30:30;13.10;91.00
4453;DHT22;2239;48.152;11.584;2023-05-31T02:32:55;13.00;90.80
4453;DHT22;2239;48.152;11.584;2023-05-31T02:35:21;13.00;90.80
4453;DHT22;2239;48.152;11.584;2023-05-31T02:37:46;12.90;90.70
4453;DHT22;2239;48.152;11.584;2023-05-31T02:40:12;12.90;90.90
4453;DHT22;2239;48.152;11.584;2023-05-31T02:42:40;12.90;90.80
4453;DHT22;2239;48.152;11.584;2023-05-31T02:45:07;12.90;90.90
4453;DHT22;2239;48.152;11.584;2023-05-31T02:47:33;12.80;91.00
4453;DHT22;2239;48.152;11.584;2023-05-31T02:49:58;12.70;91.10
4453;DHT22;2239;48.152;11.584;2023-05-31T02:52:25;12.70;91.30
4453;DHT22;2239;48.152;11.584;2023-05-31T02:54:52;12.60;91.50
4453;DHT22;2239;48.152;11.584;2023-05-31T02:57:18;12.60;91.60
4453;DHT22;2239;48.152;11.584;2023-05-31T02:59:45;12.60;91.90
4453;DHT22;2239;48.152;11.584;2023-05-31T03:02:10;12.60;92.00
4453;DHT22;2239;48.152;11.584;2023-05-31T03:04:36;12.50;92.10
4453;DHT22;2239;48.152;11.584;2023-05-31T03:07:02;12.50;92.40
4453;DHT22;2239;48.152;11.584;2023-05-31T03:09:28;12.40;92.50
4453;DHT22;2239;48.152;11.584;2023-05-31T03:11:54;12.40;92.60
4453;DHT22;2239;48.152;11.584;2023-05-31T03:14:20;12.40;92.70
4453;DHT22;2239;48.152;11.584;2023-05-31T03:16:46;12.40;92.80
4453;DHT22;2239;48.152;11.584;2023-05-31T03:19:11;12.40;92.90
4453;DHT22;2239;48.152;11.584;2023-05-31T03:21:39;12.40;92.80
4453;DHT22;2239;48.152;11.584;2023-05-31T03:24:05;12.40;92.60
4453;DHT22;2239;48.152;11.584;2023-05-31T03:26:31;12.30;92.40
4453;DHT22;2239;48.152;11.584;2023-05-31T03:28:57;12.30;92.60
4453;DHT22;2239;48.152;11.584;2023-05-31T03:31:22;12.30;92.50
4453;DHT22;2239;48.152;11.584;2023-05-31T03:33:49;12.30;92.60
4453;DHT22;2239;48.152;11.584;2023-05-31T03:36:15;12.30;92.50
4453;DHT22;2239;48.152;11.584;2023-05-31T03:38:40;12.30;92.60
4453;DHT22;2239;48.152;11.584;2023-05-31T03:41:06;12.30;92.70
4453;DHT22;2239;48.152;11.584;2023-05-31T03:43:31;12.40;92.80
4453;DHT22;2239;48.152;11.584;2023-05-31T03:45:57;12.30;93.00
4453;DHT22;2239;48.152;11.584;2023-05-31T03:48:29;12.30;93.20
4453;DHT22;2239;48.152;11.584;2023-05-31T03:50:56;12.20;93.40
4453;DHT22;2239;48.152;11.584;2023-05-31T03:53:21;12.20;93.50
4453;DHT22;2239;48.152;11.584;2023-05-31T03:55:47;12.10;93.50
4453;DHT22;2239;48.152;11.584;2023-05-31T03:58:13;12.10;93.50
4453;DHT22;2239;48.152;11.584;2023-05-31T04:00:38;12.10;93.50
4453;DHT22;2239;48.152;11.584;2023-05-31T04:03:04;12.10;93.30
4453;DHT22;2239;48.152;11.584;2023-05-31T04:05:30;12.10;93.10
4453;DHT22;2239;48.152;11.584;2023-05-31T04:07:56;12.10;93.20
4453;DHT22;2239;48.152;11.584;2023-05-31T04:10:21;12.10;93.40
4453;DHT22;2239;48.152;11.584;2023-05-31T04:12:47;12.20;93.80
4453;DHT22;2239;48.152;11.584;2023-05-31T04:15:13;12.30;93.90
4453;DHT22;2239;48.152;11.584;2023-05-31T04:17:39;12.30;93.70
4453;DHT22;2239;48.152;11.584;2023-05-31T04:20:05;12.30;93.60
4453;DHT22;2239;48.152;11.584;2023-05-31T04:22:33;12.40;93.90
4453;DHT22;2239;48.152;11.584;2023-05-31T04:24:59;12.40;93.60
4453;DHT22;2239;48.152;11.584;2023-05-31T04:27:24;12.40;93.60
4453;DHT22;2239;48.152;11.584;2023-05-31T04:29:51;12.50;93.50
4453;DHT22;2239;48.152;11.584;2023-05-31T04:32:17;12.50;93.20
4453;DHT22;2239;48.152;11.584;2023-05-31T04:34:46;12.60;93.20
4453;DHT22;2239;48.152;11.584;2023-05-31T04:37:13;12.60;93.10
4453;DHT22;2239;48.152;11.584;2023-05-31T04:39:39;12.70;93.00
4453;DHT22;2239;48.152;11.584;2023-05-31T04:42:05;12.70;93.30
4453;DHT22;2239;48.152;11.584;2023-05-31T04:44:35;12.80;92.80
4453;DHT22;2239;48.152;11.584;2023-05-31T04:47:01;13.00;92.80
4453;DHT22;2239;48.152;11.584;2023-05-31T04:49:27;13.00;92.70
4453;DHT22;2239;48.152;11.584;2023-05-31T04:51:52;13.10;92.50
4453;DHT22;2239;48.152;11.584;2023-05-31T04:54:18;13.30;92.20
4453;DHT22;2239;48.152;11.584;2023-05-31T04:56:43;13.30;92.10
4453;DHT22;2239;48.152;11.584;2023-05-31T04:59:09;13.40;91.80
4453;DHT22;2239;48.152;11.584;2023-05-31T05:01:35;13.50;91.70
4453;DHT22;2239;48.152;11.584;2023-05-31T05:04:01;13.60;91.80
4453;DHT22;2239;48.152;11.584;2023-05-31T05:06:26;13.70;91.70
4453;DHT22;2239;48.152;11.584;2023-05-31T05:08:53;13.80;91.50
4453;DHT22;2239;48.152;11.584;2023-05-31T05:11:18;13.90;91.30
4453;DHT22;2239;48.152;11.584;2023-05-31T05:13:44;13.90;91.30
4453;DHT22;2239;48.152;11.584;2023-05-31T05:16:10;13.90;91.10
4453;DHT22;2239;48.152;11.584;2023-05-31T05:18:36;14.10;91.10
4453;DHT22;2239;48.152;11.584;2023-05-31T05:21:02;14.10;90.90
4453;DHT22;2239;48.152;11.584;2023-05-31T05:23:29;14.20;90.90
4453;DHT22;2239;48.152;11.584;2023-05-31T05:25:54;14.30;90.70
4453;DHT22;2239;48.152;11.584;2023-05-31T05:28:20;14.40;90.40
4453;DHT22;2239;48.152;11.584;2023-05-31T05:30:47;14.40;90.10
4453;DHT22;2239;48.152;11.584;2023-05-31T05:33:13;14.40;90.20
4453;DHT22;2239;48.152;11.584;2023-05-31T05:35:39;14.50;90.20
4453;DHT22;2239;48.152;11.584;2023-05-31T05:38:04;14.50;89.90
4453;DHT22;2239;48.152;11.584;2023-05-31T05:40:30;14.60;90.00
4453;DHT22;2239;48.152;11.584;2023-05-31T05:42:55;14.70;90.00
4453;DHT22;2239;48.152;11.584;2023-05-31T05:45:21;14.80;89.90
4453;DHT22;2239;48.152;11.584;2023-05-31T05:47:46;14.90;89.70
4453;DHT22;2239;48.152;11.584;2023-05-31T05:50:14;15.00;88.90
4453;DHT22;2239;48.152;11.584;2023-05-31T05:52:40;15.00;88.50
4453;DHT22;2239;48.152;11.584;2023-05-31T05:55:05;15.00;88.40
4453;DHT22;2239;48.152;11.584;2023-05-31T05:57:31;15.10;88.20
4453;DHT22;2239;48.152;11.584;2023-05-31T05:59:57;15.10;88.30
4453;DHT22;2239;48.152;11.584;2023-05-31T06:02:23;15.10;88.10
4453;DHT22;2239;48.152;11.584;2023-05-31T06:04:49;15.20;88.20
4453;DHT22;2239;48.152;11.584;2023-05-31T06:07:16;15.30;88.40
4453;DHT22;2239;48.152;11.584;2023-05-31T06:09:42;15.50;88.40
4453;DHT22;2239;48.152;11.584;2023-05-31T06:12:08;15.60;87.80
4453;DHT22;2239;48.152;11.584;2023-05-31T06:14:34;15.70;87.70
4453;DHT22;2239;48.152;11.584;2023-05-31T06:17:00;15.80;87.10
4453;DHT22;2239;48.152;11.584;2023-05-31T06:19:25;15.90;86.90
4453;DHT22;2239;48.152;11.584;2023-05-31T06:21:51;16.10;86.90
4453;DHT22;2239;48.152;11.584;2023-05-31T06:24:19;16.10;86.10
4453;DHT22;2239;48.152;11.584;2023-05-31T06:26:44;16.20;85.90
4453;DHT22;2239;48.152;11.584;2023-05-31T06:29:10;16.20;85.20
4453;DHT22;2239;48.152;11.584;2023-05-31T06:31:35;16.30;85.60
4453;DHT22;2239;48.152;11.584;2023-05-31T06:34:01;16.50;86.30
4453;DHT22;2239;48.152;11.584;2023-05-31T06:36:28;16.60;85.40
4453;DHT22;2239;48.152;11.584;2023-05-31T06:38:54;16.60;85.00
4453;DHT22;2239;48.152;11.584;2023-05-31T06:41:20;16.60;85.10
4453;DHT22;2239;48.152;11.584;2023-05-31T06:43:45;16.60;85.10
4453;DHT22;2239;48.152;11.584;2023-05-31T06:46:11;16.70;85.00
4453;DHT22;2239;48.152;11.584;2023-05-31T06:48:38;16.80;84.80
4453;DHT22;2239;48.152;11.584;2023-05-31T06:51:03;16.90;84.20
4453;DHT22;2239;48.152;11.584;2023-05-31T06:53:29;17.10;84.50
4453;DHT22;2239;48.152;11.584;2023-05-31T06:55:54;17.20;84.70
4453;DHT22;2239;48.152;11.584;2023-05-31T06:58:20;17.20;83.50
4453;DHT22;2239;48.152;11.584;2023-05-31T07:00:45;17.20;83.10
4453;DHT22;2239;48.152;11.584;2023-05-31T07:03:11;17.20;83.20
4453;DHT22;2239;48.152;11.584;2023-05-31T07:05:36;17.30;83.30
4453;DHT22;2239;48.152;11.584;2023-05-31T07:08:02;17.40;82.90
4453;DHT22;2239;48.152;11.584;2023-05-31T07:10:28;17.60;83.10
4453;DHT22;2239;48.152;11.584;2023-05-31T07:12:54;17.70;82.50
4453;DHT22;2239;48.152;11.584;2023-05-31T07:15:20;17.80;82.40
4453;DHT22;2239;48.152;11.584;2023-05-31T07:17:45;18.10;82.60
4453;DHT22;2239;48.152;11.584;2023-05-31T07:20:11;18.20;82.50
4453;DHT22;2239;48.152;11.584;2023-05-31T07:22:37;18.30;82.00
4453;DHT22;2239;48.152;11.584;2023-05-31T07:25:04;18.40;81.20
4453;DHT22;2239;48.152;11.584;2023-05-31T07:27:30;18.40;81.10
4453;DHT22;2239;48.152;11.584;2023-05-31T07:29:56;18.30;82.10
4453;DHT22;2239;48.152;11.584;2023-05-31T07:32:22;18.40;81.60
4453;DHT22;2239;48.152;11.584;2023-05-31T07:34:47;18.60;81.10
4453;DHT22;2239;48.152;11.584;2023-05-31T07:37:13;18.80;81.60
4453;DHT22;2239;48.152;11.584;2023-05-31T07:39:38;18.90;81.00
4453;DHT22;2239;48.152;11.584;2023-05-31T07:42:04;19.00;80.00
4453;DHT22;2239;48.152;11.584;2023-05-31T07:44:31;18.90;79.60
4453;DHT22;2239;48.152;11.584;2023-05-31T07:46:57;18.90;79.70
4453;DHT22;2239;48.152;11.584;2023-05-31T07:49:22;18.90;80.00
4453;DHT22;2239;48.152;11.584;2023-05-31T07:51:48;19.00;79.30
4453;DHT22;2239;48.152;11.584;2023-05-31T07:54:13;19.10;78.30
4453;DHT22;2239;48.152;11.584;2023-05-31T07:56:39;19.20;78.70
4453;DHT22;2239;48.152;11.584;2023-05-31T07:59:06;19.40;78.60
4453;DHT22;2239;48.152;11.584;2023-05-31T08:01:32;19.60;78.00
4453;DHT22;2239;48.152;11.584;2023-05-31T08:04:06;19.80;77.00
4453;DHT22;2239;48.152;11.584;2023-05-31T08:06:32;19.90;76.50
4453;DHT22;2239;48.152;11.584;2023-05-31T08:08:58;19.80;75.60
4453;DHT22;2239;48.152;11.584;2023-05-31T08:11:24;19.90;75.80
4453;DHT22;2239;48.152;11.584;2023-05-31T08:13:51;20.00;75.20
4453;DHT22;2239;48.152;11.584;2023-05-31T08:16:17;20.00;74.60
4453;DHT22;2239;48.152;11.584;2023-05-31T08:18:43;20.10;74.70
4453;DHT22;2239;48.152;11.584;2023-05-31T08:21:09;20.20;73.90
4453;DHT22;2239;48.152;11.584;2023-05-31T08:23:35;20.20;73.90
4453;DHT22;2239;48.152;11.584;2023-05-31T08:26:00;20.20;72.60
4453;DHT22;2239;48.152;11.584;2023-05-31T08:28:26;20.40;71.60
4453;DHT22;2239;48.152;11.584;2023-05-31T08:30:52;20.40;72.40
4453;DHT22;2239;48.152;11.584;2023-05-31T08:33:17;20.50;72.80
4453;DHT22;2239;48.152;11.584;2023-05-31T08:35:43;20.50;71.60
4453;DHT22;2239;48.152;11.584;2023-05-31T08:38:09;20.40;70.70
4453;DHT22;2239;48.152;11.584;2023-05-31T08:40:35;20.50;72.00
4453;DHT22;2239;48.152;11.584;2023-05-31T08:43:08;20.70;71.60
4453;DHT22;2239;48.152;11.584;2023-05-31T08:45:42;20.90;71.50
4453;DHT22;2239;48.152;11.584;2023-05-31T08:50:59;21.10;68.20
4453;DHT22;2239;48.152;11.584;2023-05-31T08:53:26;21.20;66.40
4453;DHT22;2239;48.152;11.584;2023-05-31T08:55:53;21.20;67.10
4453;DHT22;2239;48.152;11.584;2023-05-31T08:58:19;21.40;67.30
4453;DHT22;2239;48.152;11.584;2023-05-31T09:00:45;21.50;66.90
4453;DHT22;2239;48.152;11.584;2023-05-31T09:03:12;21.60;65.40
4453;DHT22;2239;48.152;11.584;2023-05-31T09:05:37;21.70;65.30
4453;DHT22;2239;48.152;11.584;2023-05-31T09:08:03;21.70;66.10
4453;DHT22;2239;48.152;11.584;2023-05-31T09:10:29;21.80;65.30
4453;DHT22;2239;48.152;11.584;2023-05-31T09:12:56;21.90;64.80
4453;DHT22;2239;48.152;11.584;2023-05-31T09:15:25;21.90;63.80
4453;DHT22;2239;48.152;11.584;2023-05-31T09:17:51;22.10;63.60
4453;DHT22;2239;48.152;11.584;2023-05-31T09:20:18;22.30;64.00
4453;DHT22;2239;48.152;11.584;2023-05-31T09:22:51;22.30;64.00
4453;DHT22;2239;48.152;11.584;2023-05-31T09:25:17;22.40;63.90
4453;DHT22;2239;48.152;11.584;2023-05-31T09:27:42;22.40;61.30
4453;DHT22;2239;48.152;11.584;2023-05-31T09:30:13;22.40;61.20
4453;DHT22;2239;48.152;11.584;2023-05-31T09:32:39;22.40;61.80
4453;DHT22;2239;48.152;11.584;2023-05-31T09:35:15;22.50;60.30
4453;DHT22;2239;48.152;11.584;2023-05-31T09:37:44;22.50;59.40
4453;DHT22;2239;48.152;11.584;2023-05-31T09:43:07;22.80;59.40
4453;DHT22;2239;48.152;11.584;2023-05-31T09:45:33;22.80;58.40
4453;DHT22;2239;48.152;11.584;2023-05-31T09:47:58;22.80;59.20
4453;DHT22;2239;48.152;11.584;2023-05-31T09:50:25;22.90;57.90
4453;DHT22;2239;48.152;11.584;2023-05-31T09:52:57;23.00;57.80
4453;DHT22;2239;48.152;11.584;2023-05-31T09:55:23;23.10;57.90
4453;DHT22;2239;48.152;11.584;2023-05-31T09:57:51;22.70;56.70
4453;DHT22;2239;48.152;11.584;2023-05-31T10:00:18;22.50;56.90
4453;DHT22;2239;48.152;11.584;2023-05-31T10:02:51;22.60;56.90
4453;DHT22;2239;48.152;11.584;2023-05-31T10:05:18;22.60;57.60
4453;DHT22;2239;48.152;11.584;2023-05-31T10:07:47;22.90;57.30
4453;DHT22;2239;48.152;11.584;2023-05-31T10:10:13;22.90;55.30
4453;DHT22;2239;48.152;11.584;2023-05-31T10:12:45;22.80;54.80
4453;DHT22;2239;48.152;11.584;2023-05-31T10:15:16;22.80;55.10
4453;DHT22;2239;48.152;11.584;2023-05-31T10:17:48;22.90;54.40
4453;DHT22;2239;48.152;11.584;2023-05-31T10:20:16;22.90;54.10
4453;DHT22;2239;48.152;11.584;2023-05-31T10:22:43;23.10;55.00
4453;DHT22;2239;48.152;11.584;2023-05-31T10:25:18;23.40;53.80
4453;DHT22;2239;48.152;11.584;2023-05-31T10:27:50;23.40;53.40
4453;DHT22;2239;48.152;11.584;2023-05-31T10:30:18;23.40;54.40
4453;DHT22;2239;48.152;11.584;2023-05-31T10:33:00;23.60;53.50
4453;DHT22;2239;48.152;11.584;2023-05-31T10:35:28;23.60;54.00
4453;DHT22;2239;48.152;11.584;2023-05-31T10:37:54;23.60;54.10
4453;DHT22;2239;48.152;11.584;2023-05-31T10:41:01;23.70;51.50
4453;DHT22;2239;48.152;11.584;2023-05-31T10:43:38;23.80;51.40
4453;DHT22;2239;48.152;11.584;2023-05-31T10:46:09;23.40;51.10
4453;DHT22;2239;48.152;11.584;2023-05-31T10:48:45;23.40;51.70
4453;DHT22;2239;48.152;11.584;2023-05-31T10:51:12;23.40;51.20
4453;DHT22;2239;48.152;11.584;2023-05-31T10:53:38;23.60;51.90
4453;DHT22;2239;48.152;11.584;2023-05-31T10:56:09;24.00;50.80
4453;DHT22;2239;48.152;11.584;2023-05-31T10:58:37;24.20;49.50
4453;DHT22;2239;48.152;11.584;2023-05-31T11:01:07;24.20;49.10
4453;DHT22;2239;48.152;11.584;2023-05-31T11:03:34;23.90;48.70
4453;DHT22;2239;48.152;11.584;2023-05-31T11:06:02;23.70;49.20
4453;DHT22;2239;48.152;11.584;2023-05-31T11:08:29;23.70;49.00
4453;DHT22;2239;48.152;11.584;2023-05-31T11:14:06;23.70;48.40
4453;DHT22;2239;48.152;11.584;2023-05-31T11:19:15;24.00;50.90
4453;DHT22;2239;48.152;11.584;2023-05-31T11:21:51;24.00;49.20
4453;DHT22;2239;48.152;11.584;2023-05-31T11:24:30;24.00;49.00
4453;DHT22;2239;48.152;11.584;2023-05-31T11:26:59;24.10;50.10
4453;DHT22;2239;48.152;11.584;2023-05-31T11:32:14;24.10;50.10
4453;DHT22;2239;48.152;11.584;2023-05-31T11:34:57;24.00;49.90
4453;DHT22;2239;48.152;11.584;2023-05-31T11:39:49;24.20;49.80
4453;DHT22;2239;48.152;11.584;2023-05-31T11:42:15;24.20;50.30
4453;DHT22;2239;48.152;11.584;2023-05-31T11:44:45;24.20;49.40
4453;DHT22;2239;48.152;11.584;2023-05-31T11:49:42;24.70;47.80
4453;DHT22;2239;48.152;11.584;2023-05-31T11:52:07;24.60;47.10
4453;DHT22;2239;48.152;11.584;2023-05-31T11:54:33;24.60;48.60
4453;DHT22;2239;48.152;11.584;2023-05-31T11:57:05;24.50;48.10
4453;DHT22;2239;48.152;11.584;2023-05-31T11:59:35;24.20;47.40
4453;DHT22;2239;48.152;11.584;2023-05-31T12:02:05;24.20;48.00
4453;DHT22;2239;48.152;11.584;2023-05-31T12:04:42;24.30;48.40
4453;DHT22;2239;48.152;11.584;2023-05-31T12:07:14;24.40;48.50
4453;DHT22;2239;48.152;11.584;2023-05-31T12:09:40;24.30;47.70
4453;DHT22;2239;48.152;11.584;2023-05-31T12:12:06;24.20;46.90
4453;DHT22;2239;48.152;11.584;2023-05-31T12:14:32;24.20;47.40
4453;DHT22;2239;48.152;11.584;2023-05-31T12:17:02;24.40;47.50
4453;DHT22;2239;48.152;11.584;2023-05-31T12:19:31;24.70;47.40
4453;DHT22;2239;48.152;11.584;2023-05-31T12:21:57;24.80;46.20
4453;DHT22;2239;48.152;11.584;2023-05-31T12:24:23;24.80;44.60
4453;DHT22;2239;48.152;11.584;2023-05-31T12:26:49;24.70;44.40
4453;DHT22;2239;48.152;11.584;2023-05-31T12:29:18;24.70;44.10
4453;DHT22;2239;48.152;11.584;2023-05-31T12:31:44;24.80;45.80
4453;DHT22;2239;48.152;11.584;2023-05-31T12:34:17;24.90;46.40
4453;DHT22;2239;48.152;11.584;2023-05-31T12:36:43;24.90;48.00
4453;DHT22;2239;48.152;11.584;2023-05-31T12:41:37;24.90;50.90
4453;DHT22;2239;48.152;11.584;2023-05-31T12:44:03;24.80;50.50
4453;DHT22;2239;48.152;11.584;2023-05-31T12:46:40;24.70;47.40
4453;DHT22;2239;48.152;11.584;2023-05-31T12:49:22;24.70;49.10
4453;DHT22;2239;48.152;11.584;2023-05-31T12:54:30;24.50;49.80
4453;DHT22;2239;48.152;11.584;2023-05-31T12:56:57;24.30;49.20
4453;DHT22;2239;48.152;11.584;2023-05-31T12:59:23;24.10;49.30
4453;DHT22;2239;48.152;11.584;2023-05-31T13:01:50;23.90;50.50
4453;DHT22;2239;48.152;11.584;2023-05-31T13:04:16;23.90;51.30
4453;DHT22;2239;48.152;11.584;2023-05-31T13:06:42;24.10;51.80
4453;DHT22;2239;48.152;11.584;2023-05-31T13:09:08;24.30;50.60
4453;DHT22;2239;48.152;11.584;2023-05-31T13:11:34;24.40;50.10
4453;DHT22;2239;48.152;11.584;2023-05-31T13:14:01;24.40;50.40
4453;DHT22;2239;48.152;11.584;2023-05-31T13:16:29;24.40;51.10
4453;DHT22;2239;48.152;11.584;2023-05-31T13:18:56;24.40;50.90
4453;DHT22;2239;48.152;11.584;2023-05-31T13:21:22;24.40;49.90
4453;DHT22;2239;48.152;11.584;2023-05-31T13:23:48;24.50;50.80
4453;DHT22;2239;48.152;11.584;2023-05-31T13:26:13;24.60;50.30
4453;DHT22;2239;48.152;11.584;2023-05-31T13:28:39;24.70;49.90
4453;DHT22;2239;48.152;11.584;2023-05-31T13:31:04;24.60;48.60
4453;DHT22;2239;48.152;11.584;2023-05-31T13:33:31;24.50;49.30
4453;DHT22;2239;48.152;11.584;2023-05-31T13:35:57;24.40;49.50
4453;DHT22;2239;48.152;11.584;2023-05-31T13:38:23;24.40;48.90
4453;DHT22;2239;48.152;11.584;2023-05-31T13:40:49;24.40;49.10
4453;DHT22;2239;48.152;11.584;2023-05-31T13:43:20;24.40;48.60
4453;DHT22;2239;48.152;11.584;2023-05-31T13:45:47;24.50;49.50
4453;DHT22;2239;48.152;11.584;2023-05-31T13:48:12;24.60;48.50
4453;DHT22;2239;48.152;11.584;2023-05-31T13:50:41;24.60;49.30
4453;DHT22;2239;48.152;11.584;2023-05-31T13:53:07;24.50;49.20
4453;DHT22;2239;48.152;11.584;2023-05-31T13:55:35;24.50;49.30
4453;DHT22;2239;48.152;11.584;2023-05-31T13:58:00;24.40;49.50
4453;DHT22;2239;48.152;11.584;2023-05-31T14:00:26;24.40;48.40
4453;DHT22;2239;48.152;11.584;2023-05-31T14:02:52;24.60;48.40
4453;DHT22;2239;48.152;11.584;2023-05-31T14:05:17;24.70;48.10
4453;DHT22;2239;48.152;11.584;2023-05-31T14:07:43;24.80;48.20
4453;DHT22;2239;48.152;11.584;2023-05-31T14:10:09;24.80;48.90
4453;DHT22;2239;48.152;11.584;2023-05-31T14:12:36;24.90;47.90
4453;DHT22;2239;48.152;11.584;2023-05-31T14:15:01;24.70;46.40
4453;DHT22;2239;48.152;11.584;2023-05-31T14:17:28;24.60;46.20
4453;DHT22;2239;48.152;11.584;2023-05-31T14:19:53;24.70;46.50
4453;DHT22;2239;48.152;11.584;2023-05-31T14:22:19;24.70;46.00
4453;DHT22;2239;48.152;11.584;2023-05-31T14:24:44;24.60;46.30
4453;DHT22;2239;48.152;11.584;2023-05-31T14:27:10;24.40;47.40
4453;DHT22;2239;48.152;11.584;2023-05-31T14:29:35;24.50;47.40
4453;DHT22;2239;48.152;11.584;2023-05-31T14:32:01;24.40;44.10
4453;DHT22;2239;48.152;11.584;2023-05-31T14:34:26;24.30;43.00
4453;DHT22;2239;48.152;11.584;2023-05-31T14:36:52;24.30;42.60
4453;DHT22;2239;48.152;11.584;2023-05-31T14:39:17;24.30;44.30
4453;DHT22;2239;48.152;11.584;2023-05-31T14:41:43;24.40;45.90
4453;DHT22;2239;48.152;11.584;2023-05-31T14:44:09;24.50;44.50
4453;DHT22;2239;48.152;11.584;2023-05-31T14:46:34;24.60;44.30
4453;DHT22;2239;48.152;11.584;2023-05-31T14:49:00;24.70;44.10
4453;DHT22;2239;48.152;11.584;2023-05-31T14:51:25;24.60;42.90
4453;DHT22;2239;48.152;11.584;2023-05-31T14:53:53;24.60;42.00
4453;DHT22;2239;48.152;11.584;2023-05-31T14:56:19;24.40;42.00
4453;DHT22;2239;48.152;11.584;2023-05-31T14:58:45;24.30;42.40
4453;DHT22;2239;48.152;11.584;2023-05-31T15:01:11;24.40;42.40
4453;DHT22;2239;48.152;11.584;2023-05-31T15:03:37;24.50;41.50
4453;DHT22;2239;48.152;11.584;2023-05-31T15:06:03;24.50;41.60
4453;DHT22;2239;48.152;11.584;2023-05-31T15:08:29;24.50;42.10
4453;DHT22;2239;48.152;11.584;2023-05-31T15:10:55;24.50;41.20
4453;DHT22;2239;48.152;11.584;2023-05-31T15:13:21;24.40;39.80
4453;DHT22;2239;48.152;11.584;2023-05-31T15:15:46;24.40;39.80
4453;DHT22;2239;48.152;11.584;2023-05-31T15:18:12;24.40;41.10
4453;DHT22;2239;48.152;11.584;2023-05-31T15:20:38;24.20;41.10
4453;DHT22;2239;48.152;11.584;2023-05-31T15:23:04;24.40;41.90
4453;DHT22;2239;48.152;11.584;2023-05-31T15:25:30;24.40;42.80
4453;DHT22;2239;48.152;11.584;2023-05-31T15:27:56;24.40;44.50
4453;DHT22;2239;48.152;11.584;2023-05-31T15:30:21;24.40;45.60
4453;DHT22;2239;48.152;11.584;2023-05-31T15:32:47;24.40;45.80
4453;DHT22;2239;48.152;11.584;2023-05-31T15:35:12;24.50;45.90
4453;DHT22;2239;48.152;11.584;2023-05-31T15:37:38;24.40;44.40
4453;DHT22;2239;48.152;11.584;2023-05-31T15:40:04;24.30;44.20
4453;DHT22;2239;48.152;11.584;2023-05-31T15:42:30;24.30;44.70
4453;DHT22;2239;48.152;11.584;2023-05-31T15:44:55;24.30;46.10
4453;DHT22;2239;48.152;11.584;2023-05-31T15:47:21;24.30;47.00
4453;DHT22;2239;48.152;11.584;2023-05-31T15:49:47;24.40;47.20
4453;DHT22;2239;48.152;11.584;2023-05-31T15:52:12;24.50;47.80
4453;DHT22;2239;48.152;11.584;2023-05-31T15:54:38;24.40;46.70
4453;DHT22;2239;48.152;11.584;2023-05-31T15:57:04;24.30;46.00
4453;DHT22;2239;48.152;11.584;2023-05-31T15:59:30;24.20;45.30
4453;DHT22;2239;48.152;11.584;2023-05-31T16:01:57;24.20;45.60
4453;DHT22;2239;48.152;11.584;2023-05-31T16:04:23;24.20;46.40
4453;DHT22;2239;48.152;11.584;2023-05-31T16:06:49;24.20;47.10
4453;DHT22;2239;48.152;11.584;2023-05-31T16:09:15;24.10;47.70